Time,TemperatureF,DewpointF,PressureIn,WindDirection,WindDirectionDegrees,WindSpeedMPH,WindSpeedGustMPH,Humidity,HourlyPrecipIn,Conditions,Clouds,dailyrainin,SoftwareType,DateUTC
2013-02-14 00:00:00,45.0,38.6,30.31,ESE,109,0.0,0.0,78,0.00,,,0.00,VWS V14.01,2013-02-14 05:00:00,
2013-02-14 00:05:00,44.7,38.3,30.31,ESE,108,0.0,0.0,78,0.00,,,0.00,VWS V14.01,2013-02-14 05:05:00,
2013-02-14 00:10:00,44.5,38.1,30.31,ESE,108,0.0,0.0,78,0.00,,,0.00,VWS V14.01,2013-02-14 05:10:00,
2013-02-14 00:15:00,44.4,38.3,30.31,ESE,109,0.0,0.0,79,0.00,,,0.00,VWS V14.01,2013-02-14 05:15:00,
2013-02-14 00:20:00,44.3,38.2,30.31,ESE,108,0.0,0.0,79,0.00,,,0.00,VWS V14.01,2013-02-14 05:20:00,
2013-02-14 00:25:00,44.0,37.9,30.31,ESE,109,0.0,0.0,79,0.00,,,0.00,VWS V14.01,2013-02-14 05:25:00,
2013-02-14 00:30:00,43.7,37.6,30.31,ESE,109,0.0,0.0,79,0.00,,,0.00,VWS V14.01,2013-02-14 05:30:00,
2013-02-14 00:35:00,43.7,38.3,30.31,ESE,108,0.0,0.0,81,0.00,,,0.00,VWS V14.01,2013-02-14 05:35:00,
2013-02-14 00:40:00,43.8,38.4,30.31,ESE,109,0.0,0.0,81,0.00,,,0.00,VWS V14.01,2013-02-14 05:40:00,
2013-02-14 00:45:00,43.8,38.4,30.31,ESE,109,0.0,0.0,81,0.00,,,0.00,VWS V14.01,2013-02-14 05:45:00,
2013-02-14 00:50:00,43.7,38.3,30.31,ESE,108,0.0,0.0,81,0.00,,,0.00,VWS V14.01,2013-02-14 05:50:00,
2013-02-14 00:55:00,43.4,38.0,30.31,ESE,108,0.0,0.0,81,0.00,,,0.00,VWS V14.01,2013-02-14 05:55:00,
2013-02-14 01:00:00,43.1,37.7,30.31,ESE,108,0.0,0.0,81,0.00,,,0.00,VWS V14.01,2013-02-14 06:00:00,
2013-02-14 01:05:00,42.8,37.7,30.31,ESE,108,0.0,0.0,82,0.00,,,0.00,VWS V14.01,2013-02-14 06:05:00,
2013-02-14 01:10:00,42.5,37.1,30.31,ESE,108,0.0,0.0,81,0.00,,,0.00,VWS V14.01,2013-02-14 06:10:00,
2013-02-14 01:15:00,42.2,37.1,30.31,ESE,108,0.0,0.0,82,0.00,,,0.00,VWS V14.01,2013-02-14 06:15:00,
2013-02-14 01:20:00,42.0,37.2,30.32,ESE,109,0.0,0.0,83,0.00,,,0.00,VWS V14.01,2013-02-14 06:20:00,
2013-02-14 01:25:00,42.2,37.4,30.32,South,191,0.0,1.0,83,0.00,,,0.00,VWS V14.01,2013-02-14 06:25:00,
2013-02-14 01:30:00,42.5,37.7,30.31,South,190,0.0,0.0,83,0.00,,,0.00,VWS V14.01,2013-02-14 06:30:00,
2013-02-14 01:35:00,42.6,37.8,30.32,SSW,192,0.0,0.0,83,0.00,,,0.00,VWS V14.01,2013-02-14 06:35:00,
2013-02-14 01:40:00,42.6,37.5,30.32,SSW,192,0.0,0.0,82,0.00,,,0.00,VWS V14.01,2013-02-14 06:40:00,
2013-02-14 01:45:00,42.4,37.6,30.32,SSW,192,0.0,0.0,83,0.00,,,0.00,VWS V14.01,2013-02-14 06:45:00,
2013-02-14 01:50:00,42.2,37.4,30.32,SSW,197,0.0,0.0,83,0.00,,,0.00,VWS V14.01,2013-02-14 06:50:00,
2013-02-14 01:55:00,42.1,37.3,30.32,SSW,197,0.0,0.0,83,0.00,,,0.00,VWS V14.01,2013-02-14 06:55:00,
2013-02-14 02:00:00,41.9,37.1,30.32,SSW,197,0.0,0.0,83,0.00,,,0.00,VWS V14.01,2013-02-14 07:00:00,
2013-02-14 02:05:00,41.6,36.8,30.32,SSW,197,0.0,0.0,83,0.00,,,0.00,VWS V14.01,2013-02-14 07:05:00,
2013-02-14 02:10:00,41.4,36.9,30.31,SSW,197,0.0,0.0,84,0.00,,,0.00,VWS V14.01,2013-02-14 07:10:00,
2013-02-14 02:15:00,41.3,36.8,30.31,SSW,197,0.0,0.0,84,0.00,,,0.00,VWS V14.01,2013-02-14 07:15:00,
2013-02-14 02:20:00,41.2,36.7,30.31,SSW,197,0.0,0.0,84,0.00,,,0.00,VWS V14.01,2013-02-14 07:20:00,
2013-02-14 02:25:00,41.1,36.6,30.31,SSW,197,0.0,0.0,84,0.00,,,0.00,VWS V14.01,2013-02-14 07:25:00,
2013-02-14 02:30:00,40.8,36.3,30.32,SSW,197,0.0,0.0,84,0.00,,,0.00,VWS V14.01,2013-02-14 07:30:00,
2013-02-14 02:35:00,40.5,36.3,30.32,SSW,197,0.0,0.0,85,0.00,,,0.00,VWS V14.01,2013-02-14 07:35:00,
2013-02-14 02:40:00,40.5,36.7,30.32,SSW,197,0.0,0.0,86,0.00,,,0.00,VWS V14.01,2013-02-14 07:40:00,
2013-02-14 02:45:00,40.6,36.8,30.32,SSW,197,0.0,0.0,86,0.00,,,0.00,VWS V14.01,2013-02-14 07:45:00,
2013-02-14 02:50:00,40.7,36.8,30.32,SSW,197,0.0,0.0,86,0.00,,,0.00,VWS V14.01,2013-02-14 07:50:00,
2013-02-14 02:55:00,40.6,36.5,30.32,SSW,197,0.0,0.0,85,0.00,,,0.00,VWS V14.01,2013-02-14 07:55:00,
2013-02-14 03:00:00,40.2,36.1,30.31,SSW,197,0.0,0.0,85,0.00,,,0.00,VWS V14.01,2013-02-14 08:00:00,
2013-02-14 03:05:00,39.9,36.1,30.31,SSW,197,0.0,0.0,86,0.00,,,0.00,VWS V14.01,2013-02-14 08:05:00,
2013-02-14 03:10:00,39.7,35.9,30.32,SSW,197,0.0,0.0,86,0.00,,,0.00,VWS V14.01,2013-02-14 08:10:00,
2013-02-14 03:15:00,39.4,35.6,30.32,SSW,197,0.0,0.0,86,0.00,,,0.00,VWS V14.01,2013-02-14 08:15:00,
2013-02-14 03:20:00,39.4,36.2,30.32,SSW,196,0.0,0.0,88,0.00,,,0.00,VWS V14.01,2013-02-14 08:20:00,
2013-02-14 03:25:00,39.5,36.2,30.31,SSW,197,0.0,0.0,88,0.00,,,0.00,VWS V14.01,2013-02-14 08:25:00,
2013-02-14 03:30:00,39.6,36.3,30.32,SSW,198,0.0,0.0,88,0.00,,,0.00,VWS V14.01,2013-02-14 08:30:00,
2013-02-14 03:35:00,39.9,36.6,30.32,SSW,196,0.0,0.0,88,0.00,,,0.00,VWS V14.01,2013-02-14 08:35:00,
2013-02-14 03:40:00,39.9,36.3,30.32,SSW,197,0.0,0.0,87,0.00,,,0.00,VWS V14.01,2013-02-14 08:40:00,
2013-02-14 03:45:00,39.7,36.2,30.32,SSW,198,0.0,0.0,87,0.00,,,0.00,VWS V14.01,2013-02-14 08:45:00,
2013-02-14 03:50:00,39.5,36.0,30.32,SSW,197,0.0,0.0,87,0.00,,,0.00,VWS V14.01,2013-02-14 08:50:00,
2013-02-14 03:55:00,39.2,35.7,30.32,SSW,197,0.0,0.0,87,0.00,,,0.00,VWS V14.01,2013-02-14 08:55:00,
2013-02-14 04:00:00,39.0,35.8,30.32,SSW,197,0.0,0.0,88,0.00,,,0.00,VWS V14.01,2013-02-14 09:00:00,
2013-02-14 04:05:00,38.9,35.7,30.32,SSW,197,0.0,0.0,88,0.00,,,0.00,VWS V14.01,2013-02-14 09:05:00,
2013-02-14 04:10:00,38.7,35.7,30.32,SSW,197,0.0,0.0,89,0.00,,,0.00,VWS V14.01,2013-02-14 09:10:00,
2013-02-14 04:15:00,38.5,35.3,30.32,SSW,197,0.0,0.0,88,0.00,,,0.00,VWS V14.01,2013-02-14 09:15:00,
2013-02-14 04:20:00,38.4,35.5,30.32,SSW,197,0.0,0.0,89,0.00,,,0.00,VWS V14.01,2013-02-14 09:20:00,
2013-02-14 04:25:00,38.5,35.5,30.33,SSW,197,0.0,0.0,89,0.00,,,0.00,VWS V14.01,2013-02-14 09:25:00,
2013-02-14 04:30:00,38.5,35.5,30.33,SSW,197,0.0,0.0,89,0.00,,,0.00,VWS V14.01,2013-02-14 09:30:00,
2013-02-14 04:35:00,38.4,35.5,30.33,SSW,197,0.0,0.0,89,0.00,,,0.00,VWS V14.01,2013-02-14 09:35:00,
2013-02-14 04:40:00,38.2,35.2,30.33,SSW,197,0.0,0.0,89,0.00,,,0.00,VWS V14.01,2013-02-14 09:40:00,
2013-02-14 04:45:00,38.0,35.3,30.33,SSW,197,0.0,0.0,90,0.00,,,0.00,VWS V14.01,2013-02-14 09:45:00,
2013-02-14 04:50:00,38.0,35.3,30.33,SSW,197,0.0,0.0,90,0.00,,,0.00,VWS V14.01,2013-02-14 09:50:00,
2013-02-14 04:55:00,37.9,35.2,30.33,SSW,197,0.0,0.0,90,0.00,,,0.00,VWS V14.01,2013-02-14 09:55:00,
2013-02-14 05:00:00,37.6,34.9,30.33,SSW,197,0.0,0.0,90,0.00,,,0.00,VWS V14.01,2013-02-14 10:00:00,
2013-02-14 05:05:00,37.4,34.7,30.33,SSW,197,0.0,0.0,90,0.00,,,0.00,VWS V14.01,2013-02-14 10:05:00,
2013-02-14 05:10:00,37.3,34.6,30.33,SSW,197,0.0,0.0,90,0.00,,,0.00,VWS V14.01,2013-02-14 10:10:00,
2013-02-14 05:15:00,37.2,34.8,30.33,SSW,197,0.0,0.0,91,0.00,,,0.00,VWS V14.01,2013-02-14 10:15:00,
2013-02-14 05:20:00,37.2,34.8,30.33,SSW,198,0.0,0.0,91,0.00,,,0.00,VWS V14.01,2013-02-14 10:20:00,
2013-02-14 05:25:00,37.2,34.8,30.33,SSW,197,0.0,0.0,91,0.00,,,0.00,VWS V14.01,2013-02-14 10:25:00,
2013-02-14 05:30:00,37.2,34.8,30.33,SSW,197,0.0,0.0,91,0.00,,,0.00,VWS V14.01,2013-02-14 10:30:00,
2013-02-14 05:35:00,37.2,34.8,30.33,SSW,197,0.0,0.0,91,0.00,,,0.00,VWS V14.01,2013-02-14 10:35:00,
2013-02-14 05:40:00,37.2,34.8,30.33,SSW,197,0.0,0.0,91,0.00,,,0.00,VWS V14.01,2013-02-14 10:40:00,
2013-02-14 05:45:00,37.2,34.8,30.32,SSW,196,0.0,0.0,91,0.00,,,0.00,VWS V14.01,2013-02-14 10:45:00,
2013-02-14 05:50:00,37.1,34.7,30.32,SSW,197,0.0,0.0,91,0.00,,,0.00,VWS V14.01,2013-02-14 10:50:00,
2013-02-14 05:55:00,36.8,34.4,30.32,SSW,197,0.0,0.0,91,0.00,,,0.00,VWS V14.01,2013-02-14 10:55:00,
2013-02-14 06:00:00,37.2,35.1,30.32,SSW,197,0.0,0.0,92,0.00,,,0.00,VWS V14.01,2013-02-14 11:00:00,
2013-02-14 06:05:00,37.3,35.2,30.32,SSW,197,0.0,0.0,92,0.00,,,0.00,VWS V14.01,2013-02-14 11:05:00,
2013-02-14 06:10:00,37.4,35.3,30.31,SSW,197,0.0,0.0,92,0.00,,,0.00,VWS V14.01,2013-02-14 11:10:00,
2013-02-14 06:15:00,37.5,35.4,30.31,SSW,197,0.0,0.0,92,0.00,,,0.00,VWS V14.01,2013-02-14 11:15:00,
2013-02-14 06:20:00,37.9,35.8,30.31,SSW,197,0.0,0.0,92,0.00,,,0.00,VWS V14.01,2013-02-14 11:20:00,
2013-02-14 06:25:00,37.9,35.8,30.31,SSW,197,0.0,0.0,92,0.00,,,0.00,VWS V14.01,2013-02-14 11:25:00,
2013-02-14 06:30:00,37.9,35.5,30.31,SSW,197,0.0,0.0,91,0.00,,,0.00,VWS V14.01,2013-02-14 11:30:00,
2013-02-14 06:35:00,37.9,35.5,30.31,SSW,197,0.0,0.0,91,0.00,,,0.00,VWS V14.01,2013-02-14 11:35:00,
2013-02-14 06:40:00,37.9,35.8,30.32,SSW,197,0.0,0.0,92,0.00,,,0.00,VWS V14.01,2013-02-14 11:40:00,
2013-02-14 06:45:00,38.2,35.8,30.31,SSW,197,0.0,0.0,91,0.00,,,0.00,VWS V14.01,2013-02-14 11:45:00,
2013-02-14 06:50:00,38.3,35.9,30.31,SSW,197,0.0,0.0,91,0.00,,,0.00,VWS V14.01,2013-02-14 11:50:00,
2013-02-14 06:55:00,38.3,35.9,30.31,SSW,197,0.0,0.0,91,0.00,,,0.00,VWS V14.01,2013-02-14 11:55:00,
2013-02-14 07:00:00,38.2,35.8,30.31,SW,226,0.0,0.0,91,0.00,,,0.00,VWS V14.01,2013-02-14 12:00:00,
2013-02-14 07:05:00,38.3,35.9,30.31,SW,225,0.0,1.0,91,0.00,,,0.00,VWS V14.01,2013-02-14 12:05:00,
2013-02-14 07:10:00,38.3,35.6,30.31,SW,225,0.0,1.0,90,0.00,,,0.00,VWS V14.01,2013-02-14 12:10:00,
2013-02-14 07:15:00,38.4,36.0,30.31,SSE,163,0.0,2.0,91,0.00,,,0.00,VWS V14.01,2013-02-14 12:15:00,
2013-02-14 07:20:00,38.5,36.1,30.31,SSE,163,0.0,2.0,91,0.00,,,0.00,VWS V14.01,2013-02-14 12:20:00,
2013-02-14 07:25:00,38.4,35.7,30.31,SSE,165,0.0,2.0,90,0.00,,,0.00,VWS V14.01,2013-02-14 12:25:00,
2013-02-14 07:30:00,38.4,35.7,30.31,West,281,0.0,1.0,90,0.00,,,0.00,VWS V14.01,2013-02-14 12:30:00,
2013-02-14 07:35:00,38.5,36.1,30.31,West,260,0.0,1.0,91,0.00,,,0.00,VWS V14.01,2013-02-14 12:35:00,
2013-02-14 07:40:00,38.5,35.8,30.31,SW,219,0.0,1.0,90,0.00,,,0.00,VWS V14.01,2013-02-14 12:40:00,
2013-02-14 07:45:00,38.4,35.7,30.31,SW,219,0.0,1.0,90,0.00,,,0.00,VWS V14.01,2013-02-14 12:45:00,
2013-02-14 07:50:00,38.2,35.5,30.31,SW,219,0.0,1.0,90,0.00,,,0.00,VWS V14.01,2013-02-14 12:50:00,
2013-02-14 07:55:00,37.9,35.2,30.31,SW,219,0.0,1.0,90,0.00,,,0.00,VWS V14.01,2013-02-14 12:55:00,
2013-02-14 08:00:00,37.6,34.9,30.31,SW,219,0.0,0.0,90,0.00,,,0.00,VWS V14.01,2013-02-14 13:00:00,
2013-02-14 08:05:00,37.5,35.1,30.31,SW,219,0.0,1.0,91,0.00,,,0.00,VWS V14.01,2013-02-14 13:05:00,
2013-02-14 08:10:00,37.4,35.0,30.31,SW,219,0.0,1.0,91,0.00,,,0.00,VWS V14.01,2013-02-14 13:10:00,
2013-02-14 08:15:00,37.4,35.3,30.31,SW,219,0.0,1.0,92,0.00,,,0.00,VWS V14.01,2013-02-14 13:15:00,
2013-02-14 08:20:00,37.4,35.0,30.31,WSW,237,0.0,1.0,91,0.00,,,0.00,VWS V14.01,2013-02-14 13:20:00,
2013-02-14 08:24:00,37.3,34.9,30.31,SSW,196,0.0,1.0,91,0.00,,,0.00,VWS V14.01,2013-02-14 13:24:00,
2013-02-14 08:29:00,37.2,34.8,30.31,SSW,195,0.0,0.0,91,0.00,,,0.00,VWS V14.01,2013-02-14 13:29:00,
2013-02-14 08:34:00,37.2,35.1,30.31,SSW,194,0.0,0.0,92,0.00,,,0.00,VWS V14.01,2013-02-14 13:34:00,
2013-02-14 08:39:00,37.2,35.1,30.31,SSW,194,0.0,0.0,92,0.00,,,0.00,VWS V14.01,2013-02-14 13:39:00,
2013-02-14 08:44:00,37.3,35.2,30.31,SSW,195,0.0,0.0,92,0.00,,,0.00,VWS V14.01,2013-02-14 13:44:00,
2013-02-14 08:49:00,37.4,35.3,30.31,SSW,195,0.0,0.0,92,0.00,,,0.00,VWS V14.01,2013-02-14 13:49:00,
2013-02-14 08:54:00,37.5,35.4,30.31,SSW,196,0.0,0.0,92,0.00,,,0.00,VWS V14.01,2013-02-14 13:54:00,
2013-02-14 08:59:00,37.8,35.7,30.31,South,169,0.0,0.0,92,0.00,,,0.00,VWS V14.01,2013-02-14 13:59:00,
2013-02-14 09:04:00,38.4,36.3,30.31,South,184,0.0,1.0,92,0.00,,,0.00,VWS V14.01,2013-02-14 14:04:00,
2013-02-14 09:09:00,39.1,36.7,30.31,SSW,196,0.0,1.0,91,0.00,,,0.00,VWS V14.01,2013-02-14 14:09:00,
2013-02-14 09:14:00,40.2,37.5,30.31,SSE,165,0.0,1.0,90,0.00,,,0.00,VWS V14.01,2013-02-14 14:14:00,
2013-02-14 09:19:00,41.3,38.0,30.31,ESE,105,1.0,2.0,88,0.00,,,0.00,VWS V14.01,2013-02-14 14:19:00,
2013-02-14 09:24:00,43.3,38.8,30.31,SE,136,0.0,2.0,84,0.00,,,0.00,VWS V14.01,2013-02-14 14:24:00,
2013-02-14 09:29:00,44.1,38.7,30.32,SSE,156,0.0,1.0,81,0.00,,,0.00,VWS V14.01,2013-02-14 14:29:00,
2013-02-14 09:34:00,44.7,38.9,30.32,WNW,301,1.0,1.0,80,0.00,,,0.00,VWS V14.01,2013-02-14 14:34:00,
2013-02-14 09:39:00,45.7,39.2,30.32,SW,214,0.0,1.0,78,0.00,,,0.00,VWS V14.01,2013-02-14 14:39:00,
2013-02-14 09:44:00,46.0,38.9,30.32,SSE,149,0.0,1.0,76,0.00,,,0.00,VWS V14.01,2013-02-14 14:44:00,
2013-02-14 09:49:00,46.1,38.6,30.32,East,91,0.0,2.0,75,0.00,,,0.00,VWS V14.01,2013-02-14 14:49:00,
2013-02-14 09:54:00,46.4,38.6,30.33,East,86,0.0,3.0,74,0.00,,,0.00,VWS V14.01,2013-02-14 14:54:00,
2013-02-14 09:59:00,46.9,38.7,30.33,ENE,61,1.0,2.0,73,0.00,,,0.00,VWS V14.01,2013-02-14 14:59:00,
2013-02-14 10:04:00,47.4,38.8,30.33,SSE,168,0.0,2.0,72,0.00,,,0.00,VWS V14.01,2013-02-14 15:04:00,
2013-02-14 10:09:00,47.6,38.7,30.33,NW,314,0.0,2.0,71,0.00,,,0.00,VWS V14.01,2013-02-14 15:09:00,
2013-02-14 10:14:00,48.0,38.7,30.33,SW,236,1.0,3.0,70,0.00,,,0.00,VWS V14.01,2013-02-14 15:14:00,
2013-02-14 10:19:00,48.4,38.7,30.33,East,101,0.0,3.0,69,0.00,,,0.00,VWS V14.01,2013-02-14 15:19:00,
2013-02-14 10:24:00,48.7,38.6,30.33,East,89,1.0,3.0,68,0.00,,,0.00,VWS V14.01,2013-02-14 15:24:00,
2013-02-14 10:29:00,49.8,39.3,30.33,SSW,207,2.0,6.0,67,0.00,,,0.00,VWS V14.01,2013-02-14 15:29:00,
2013-02-14 10:34:00,49.9,39.0,30.33,SSE,148,0.0,6.0,66,0.00,,,0.00,VWS V14.01,2013-02-14 15:34:00,
2013-02-14 10:39:00,50.0,39.1,30.34,WSW,252,0.0,6.0,66,0.00,,,0.00,VWS V14.01,2013-02-14 15:39:00,
2013-02-14 10:44:00,50.4,39.1,30.34,SSE,167,0.0,6.0,65,0.00,,,0.00,VWS V14.01,2013-02-14 15:44:00,
2013-02-14 10:49:00,50.6,39.3,30.34,SSE,159,0.0,6.0,65,0.00,,,0.00,VWS V14.01,2013-02-14 15:49:00,
2013-02-14 10:54:00,50.6,39.3,30.34,South,191,0.0,6.0,65,0.00,,,0.00,VWS V14.01,2013-02-14 15:54:00,
2013-02-14 10:59:00,50.6,39.3,30.34,ESE,103,0.0,0.0,65,0.00,,,0.00,VWS V14.01,2013-02-14 15:59:00,
2013-02-14 11:04:00,50.9,39.2,30.34,ENE,68,0.0,4.0,64,0.00,,,0.00,VWS V14.01,2013-02-14 16:04:00,
2013-02-14 11:09:00,51.6,39.4,30.34,SSW,205,1.0,6.0,63,0.00,,,0.00,VWS V14.01,2013-02-14 16:09:00,
2013-02-14 11:14:00,52.6,39.5,30.35,SW,221,1.0,6.0,61,0.00,,,0.00,VWS V14.01,2013-02-14 16:14:00,
2013-02-14 11:19:00,53.3,39.8,30.35,SSE,150,7.0,7.0,60,0.00,,,0.00,VWS V14.01,2013-02-14 16:19:00,
2013-02-14 11:24:00,53.9,39.9,30.35,SE,130,0.0,7.0,59,0.00,,,0.00,VWS V14.01,2013-02-14 16:24:00,
2013-02-14 11:29:00,54.6,39.7,30.35,SSW,193,2.0,4.0,57,0.00,,,0.00,VWS V14.01,2013-02-14 16:29:00,
2013-02-14 11:34:00,55.2,39.8,30.35,SE,127,0.0,4.0,56,0.00,,,0.00,VWS V14.01,2013-02-14 16:34:00,
2013-02-14 11:39:00,55.9,40.0,30.34,South,187,1.0,4.0,55,0.00,,,0.00,VWS V14.01,2013-02-14 16:39:00,
2013-02-14 11:44:00,56.2,39.8,30.34,SE,131,1.0,4.0,54,0.00,,,0.00,VWS V14.01,2013-02-14 16:44:00,
2013-02-14 11:49:00,56.6,40.2,30.35,SE,129,0.0,5.0,54,0.00,,,0.00,VWS V14.01,2013-02-14 16:49:00,
2013-02-14 11:54:00,57.1,40.2,30.34,SSE,150,1.0,5.0,53,0.00,,,0.00,VWS V14.01,2013-02-14 16:54:00,
2013-02-14 11:59:00,57.4,39.4,30.34,ENE,77,3.0,5.0,51,0.00,,,0.00,VWS V14.01,2013-02-14 16:59:00,
2013-02-14 12:04:00,57.4,39.9,30.34,ENE,60,6.0,6.0,52,0.00,,,0.00,VWS V14.01,2013-02-14 17:04:00,
2013-02-14 12:09:00,57.4,39.4,30.34,SSE,147,0.0,7.0,51,0.00,,,0.00,VWS V14.01,2013-02-14 17:09:00,
2013-02-14 12:14:00,57.8,39.8,30.35,NE,54,0.0,7.0,51,0.00,,,0.00,VWS V14.01,2013-02-14 17:14:00,
2013-02-14 12:19:00,58.3,40.3,30.35,SW,214,0.0,7.0,51,0.00,,,0.00,VWS V14.01,2013-02-14 17:19:00,
2013-02-14 12:24:00,58.4,39.3,30.35,NW,305,0.0,7.0,49,0.00,,,0.00,VWS V14.01,2013-02-14 17:24:00,
2013-02-14 12:29:00,58.5,39.4,30.34,WNW,298,2.0,4.0,49,0.00,,,0.00,VWS V14.01,2013-02-14 17:29:00,
2013-02-14 12:34:00,58.6,40.0,30.34,NNW,332,2.0,4.0,50,0.00,,,0.00,VWS V14.01,2013-02-14 17:34:00,
2013-02-14 12:39:00,58.5,40.5,30.35,ENE,61,1.0,6.0,51,0.00,,,0.00,VWS V14.01,2013-02-14 17:39:00,
2013-02-14 12:44:00,58.5,39.9,30.35,ESE,120,1.0,9.0,50,0.00,,,0.00,VWS V14.01,2013-02-14 17:44:00,
2013-02-14 12:49:00,58.7,40.6,30.35,SE,124,0.0,9.0,51,0.00,,,0.00,VWS V14.01,2013-02-14 17:49:00,
2013-02-14 12:54:00,59.1,41.5,30.35,NNE,29,2.0,9.0,52,0.00,,,0.00,VWS V14.01,2013-02-14 17:54:00,
2013-02-14 12:59:00,59.0,40.9,30.34,East,91,2.0,2.0,51,0.00,,,0.00,VWS V14.01,2013-02-14 17:59:00,
2013-02-14 13:04:00,59.6,41.5,30.35,NNE,20,0.0,2.0,51,0.00,,,0.00,VWS V14.01,2013-02-14 18:04:00,
2013-02-14 13:09:00,59.5,40.9,30.34,ENE,77,1.0,6.0,50,0.00,,,0.00,VWS V14.01,2013-02-14 18:09:00,
2013-02-14 13:14:00,59.8,41.7,30.35,SE,145,3.0,6.0,51,0.00,,,0.00,VWS V14.01,2013-02-14 18:14:00,
2013-02-14 13:19:00,60.3,41.6,30.34,ENE,71,1.0,6.0,50,0.00,,,0.00,VWS V14.01,2013-02-14 18:19:00,
2013-02-14 13:24:00,60.0,41.3,30.34,SSW,204,1.0,6.0,50,0.00,,,0.00,VWS V14.01,2013-02-14 18:24:00,
2013-02-14 13:29:00,60.6,41.9,30.34,North,4,1.0,2.0,50,0.00,,,0.00,VWS V14.01,2013-02-14 18:29:00,
2013-02-14 13:34:00,61.0,41.2,30.34,ENE,71,1.0,4.0,48,0.00,,,0.00,VWS V14.01,2013-02-14 18:34:00,
2013-02-14 13:39:00,60.7,42.0,30.34,WNW,287,2.0,5.0,50,0.00,,,0.00,VWS V14.01,2013-02-14 18:39:00,
2013-02-14 13:44:00,61.0,42.2,30.34,SSW,208,1.0,5.0,50,0.00,,,0.00,VWS V14.01,2013-02-14 18:44:00,
2013-02-14 13:49:00,60.9,41.6,30.33,SSW,210,0.0,5.0,49,0.00,,,0.00,VWS V14.01,2013-02-14 18:49:00,
2013-02-14 13:54:00,61.2,41.9,30.33,NW,307,1.0,5.0,49,0.00,,,0.00,VWS V14.01,2013-02-14 18:54:00,
2013-02-14 13:59:00,61.4,42.1,30.33,ENE,75,0.0,2.0,49,0.00,,,0.00,VWS V14.01,2013-02-14 18:59:00,
2013-02-14 14:04:00,61.4,42.6,30.33,North,354,1.0,2.0,50,0.00,,,0.00,VWS V14.01,2013-02-14 19:04:00,
2013-02-14 14:09:00,61.5,42.2,30.33,ESE,111,0.0,5.0,49,0.00,,,0.00,VWS V14.01,2013-02-14 19:09:00,
2013-02-14 14:14:00,61.8,42.5,30.33,NE,54,3.0,6.0,49,0.00,,,0.00,VWS V14.01,2013-02-14 19:14:00,
2013-02-14 14:19:00,61.7,43.4,30.33,NE,55,0.0,6.0,51,0.00,,,0.00,VWS V14.01,2013-02-14 19:19:00,
2013-02-14 14:24:00,61.7,43.4,30.32,NE,36,3.0,7.0,51,0.00,,,0.00,VWS V14.01,2013-02-14 19:24:00,
2013-02-14 14:29:00,61.8,43.0,30.32,NNE,12,3.0,6.0,50,0.00,,,0.00,VWS V14.01,2013-02-14 19:29:00,
2013-02-14 14:34:00,62.2,43.3,30.32,NNW,335,0.0,6.0,50,0.00,,,0.00,VWS V14.01,2013-02-14 19:34:00,
2013-02-14 14:39:00,62.4,43.0,30.32,SSW,198,0.0,6.0,49,0.00,,,0.00,VWS V14.01,2013-02-14 19:39:00,
2013-02-14 14:44:00,62.9,43.5,30.32,SW,232,1.0,6.0,49,0.00,,,0.00,VWS V14.01,2013-02-14 19:44:00,
2013-02-14 14:49:00,63.4,44.5,30.31,ENE,68,6.0,6.0,50,0.00,,,0.00,VWS V14.01,2013-02-14 19:49:00,
2013-02-14 14:54:00,62.9,43.5,30.31,East,80,3.0,6.0,49,0.00,,,0.00,VWS V14.01,2013-02-14 19:54:00,
2013-02-14 14:59:00,62.5,44.2,30.31,East,90,1.0,3.0,51,0.00,,,0.00,VWS V14.01,2013-02-14 19:59:00,
2013-02-14 15:04:00,63.2,44.3,30.31,SSW,200,1.0,3.0,50,0.00,,,0.00,VWS V14.01,2013-02-14 20:04:00,
2013-02-14 15:09:00,63.9,44.9,30.30,East,96,3.0,4.0,50,0.00,,,0.00,VWS V14.01,2013-02-14 20:09:00,
2013-02-14 15:14:00,63.8,44.3,30.30,South,183,3.0,10.0,49,0.00,,,0.00,VWS V14.01,2013-02-14 20:14:00,
2013-02-14 15:19:00,64.2,44.7,30.30,ENE,68,3.0,10.0,49,0.00,,,0.00,VWS V14.01,2013-02-14 20:19:00,
2013-02-14 15:24:00,64.0,43.4,30.30,East,93,1.0,10.0,47,0.00,,,0.00,VWS V14.01,2013-02-14 20:24:00,
2013-02-14 15:29:00,63.9,44.4,30.30,NE,51,2.0,2.0,49,0.00,,,0.00,VWS V14.01,2013-02-14 20:29:00,
2013-02-14 15:34:00,64.8,44.7,30.30,NE,54,1.0,3.0,48,0.00,,,0.00,VWS V14.01,2013-02-14 20:34:00,
2013-02-14 15:39:00,64.6,43.9,30.30,NNW,340,1.0,6.0,47,0.00,,,0.00,VWS V14.01,2013-02-14 20:39:00,
2013-02-14 15:44:00,64.9,44.8,30.29,ENE,68,4.0,6.0,48,0.00,,,0.00,VWS V14.01,2013-02-14 20:44:00,
2013-02-14 15:49:00,65.2,44.5,30.29,ENE,76,1.0,6.0,47,0.00,,,0.00,VWS V14.01,2013-02-14 20:49:00,
2013-02-14 15:54:00,65.5,44.2,30.29,East,79,3.0,10.0,46,0.00,,,0.00,VWS V14.01,2013-02-14 20:54:00,
2013-02-14 15:59:00,65.5,44.2,30.29,SSE,148,0.0,0.0,46,0.00,,,0.00,VWS V14.01,2013-02-14 20:59:00,
2013-02-14 16:04:00,65.7,43.8,30.29,ENE,77,1.0,4.0,45,0.00,,,0.00,VWS V14.01,2013-02-14 21:04:00,
2013-02-14 16:09:00,65.6,44.3,30.28,NNW,340,3.0,6.0,46,0.00,,,0.00,VWS V14.01,2013-02-14 21:09:00,
2013-02-14 16:14:00,65.9,45.1,30.28,NNW,328,1.0,6.0,47,0.00,,,0.00,VWS V14.01,2013-02-14 21:14:00,
2013-02-14 16:19:00,65.9,44.0,30.28,NE,38,2.0,6.0,45,0.00,,,0.00,VWS V14.01,2013-02-14 21:19:00,
2013-02-14 16:24:00,65.8,43.9,30.27,ENE,63,4.0,10.0,45,0.00,,,0.00,VWS V14.01,2013-02-14 21:24:00,
2013-02-14 16:29:00,66.2,43.7,30.27,ENE,72,2.0,5.0,44,0.00,,,0.00,VWS V14.01,2013-02-14 21:29:00,
2013-02-14 16:34:00,66.7,44.1,30.27,North,359,2.0,6.0,44,0.00,,,0.00,VWS V14.01,2013-02-14 21:34:00,
2013-02-14 16:39:00,67.2,45.2,30.27,ENE,65,3.0,6.0,45,0.00,,,0.00,VWS V14.01,2013-02-14 21:39:00,
2013-02-14 16:44:00,66.7,43.5,30.27,ENE,71,1.0,9.0,43,0.00,,,0.00,VWS V14.01,2013-02-14 21:44:00,
2013-02-14 16:49:00,66.7,44.1,30.27,South,178,2.0,9.0,44,0.00,,,0.00,VWS V14.01,2013-02-14 21:49:00,
2013-02-14 16:54:00,66.9,44.3,30.27,WNW,284,1.0,9.0,44,0.00,,,0.00,VWS V14.01,2013-02-14 21:54:00,
2013-02-14 16:59:00,67.5,44.2,30.27,ESE,116,1.0,3.0,43,0.00,,,0.00,VWS V14.01,2013-02-14 21:59:00,
2013-02-14 17:04:00,67.3,43.5,30.27,NE,46,4.0,6.0,42,0.00,,,0.00,VWS V14.01,2013-02-14 22:04:00,
2013-02-14 17:09:00,67.8,44.5,30.26,NNE,32,1.0,6.0,43,0.00,,,0.00,VWS V14.01,2013-02-14 22:09:00,
2013-02-14 17:14:00,67.8,43.9,30.26,West,281,0.0,6.0,42,0.00,,,0.00,VWS V14.01,2013-02-14 22:14:00,
2013-02-14 17:19:00,68.1,44.8,30.26,SSE,160,0.0,6.0,43,0.00,,,0.00,VWS V14.01,2013-02-14 22:19:00,
2013-02-14 17:24:00,67.8,44.5,30.26,South,184,1.0,6.0,43,0.00,,,0.00,VWS V14.01,2013-02-14 22:24:00,
2013-02-14 17:29:00,68.1,44.2,30.26,NE,56,3.0,4.0,42,0.00,,,0.00,VWS V14.01,2013-02-14 22:29:00,
2013-02-14 17:34:00,68.1,44.8,30.25,SSE,165,1.0,4.0,43,0.00,,,0.00,VWS V14.01,2013-02-14 22:34:00,
2013-02-14 17:39:00,68.4,45.0,30.25,SSW,198,2.0,5.0,43,0.00,,,0.00,VWS V14.01,2013-02-14 22:39:00,
2013-02-14 17:44:00,68.3,44.3,30.26,NE,51,1.0,5.0,42,0.00,,,0.00,VWS V14.01,2013-02-14 22:44:00,
2013-02-14 17:49:00,68.3,44.3,30.26,East,97,2.0,6.0,42,0.00,,,0.00,VWS V14.01,2013-02-14 22:49:00,
2013-02-14 17:54:00,68.0,44.7,30.26,SE,124,3.0,6.0,43,0.00,,,0.00,VWS V14.01,2013-02-14 22:54:00,
2013-02-14 17:59:00,67.5,44.2,30.25,NNE,18,2.0,3.0,43,0.00,,,0.00,VWS V14.01,2013-02-14 22:59:00,
2013-02-14 18:04:00,67.5,44.8,30.25,NNW,336,1.0,7.0,44,0.00,,,0.00,VWS V14.01,2013-02-14 23:04:00,
2013-02-14 18:09:00,68.1,44.8,30.26,ENE,57,5.0,7.0,43,0.00,,,0.00,VWS V14.01,2013-02-14 23:09:00,
2013-02-14 18:14:00,67.7,45.0,30.25,SE,132,1.0,7.0,44,0.00,,,0.00,VWS V14.01,2013-02-14 23:14:00,
2013-02-14 18:19:00,68.3,45.6,30.25,SSE,160,0.0,7.0,44,0.00,,,0.00,VWS V14.01,2013-02-14 23:19:00,
2013-02-14 18:24:00,68.4,45.0,30.25,ESE,115,0.0,7.0,43,0.00,,,0.00,VWS V14.01,2013-02-14 23:24:00,
2013-02-14 18:29:00,68.5,45.1,30.25,WSW,253,0.0,1.0,43,0.00,,,0.00,VWS V14.01,2013-02-14 23:29:00,
2013-02-14 18:34:00,68.6,45.2,30.25,East,99,1.0,5.0,43,0.00,,,0.00,VWS V14.01,2013-02-14 23:34:00,
2013-02-14 18:39:00,68.7,45.3,30.25,East,90,1.0,5.0,43,0.00,,,0.00,VWS V14.01,2013-02-14 23:39:00,
2013-02-14 18:44:00,68.3,45.0,30.25,NE,56,1.0,5.0,43,0.00,,,0.00,VWS V14.01,2013-02-14 23:44:00,
2013-02-14 18:49:00,68.4,45.7,30.25,ESE,109,1.0,5.0,44,0.00,,,0.00,VWS V14.01,2013-02-14 23:49:00,
2013-02-14 18:54:00,68.0,44.7,30.25,ENE,71,3.0,6.0,43,0.00,,,0.00,VWS V14.01,2013-02-14 23:54:00,
2013-02-14 18:59:00,67.9,45.2,30.25,SSE,159,0.0,0.0,44,0.00,,,0.00,VWS V14.01,2013-02-14 23:59:00,
2013-02-14 19:04:00,68.3,45.6,30.25,ENE,72,0.0,2.0,44,0.00,,,0.00,VWS V14.01,2013-02-15 00:04:00,
2013-02-14 19:09:00,68.5,45.1,30.25,SE,124,1.0,3.0,43,0.00,,,0.00,VWS V14.01,2013-02-15 00:09:00,
2013-02-14 19:14:00,68.4,45.0,30.25,NNE,22,0.0,3.0,43,0.00,,,0.00,VWS V14.01,2013-02-15 00:14:00,
2013-02-14 19:19:00,68.8,45.4,30.25,SW,225,0.0,3.0,43,0.00,,,0.00,VWS V14.01,2013-02-15 00:19:00,
2013-02-14 19:24:00,68.8,44.8,30.25,West,277,1.0,5.0,42,0.00,,,0.00,VWS V14.01,2013-02-15 00:24:00,
2013-02-14 19:29:00,68.4,44.4,30.25,NNW,345,1.0,3.0,42,0.00,,,0.00,VWS V14.01,2013-02-15 00:29:00,
2013-02-14 19:34:00,67.7,45.0,30.24,ESE,118,2.0,5.0,44,0.00,,,0.00,VWS V14.01,2013-02-15 00:34:00,
2013-02-14 19:39:00,67.5,44.2,30.24,North,6,4.0,5.0,43,0.00,,,0.00,VWS V14.01,2013-02-15 00:39:00,
2013-02-14 19:44:00,67.3,44.7,30.24,WNW,288,1.0,5.0,44,0.00,,,0.00,VWS V14.01,2013-02-15 00:44:00,
2013-02-14 19:49:00,67.1,44.5,30.24,SSE,163,3.0,5.0,44,0.00,,,0.00,VWS V14.01,2013-02-15 00:49:00,
2013-02-14 19:54:00,66.7,44.1,30.24,ENE,59,0.0,5.0,44,0.00,,,0.00,VWS V14.01,2013-02-15 00:54:00,
2013-02-14 19:59:00,66.5,44.5,30.24,ENE,57,0.0,2.0,45,0.00,,,0.00,VWS V14.01,2013-02-15 00:59:00,
2013-02-14 20:04:00,66.2,44.2,30.24,WNW,288,0.0,2.0,45,0.00,,,0.00,VWS V14.01,2013-02-15 01:04:00,
2013-02-14 20:08:00,65.8,44.5,30.25,ENE,61,0.0,2.0,46,0.00,,,0.00,VWS V14.01,2013-02-15 01:08:00,
2013-02-14 20:13:00,65.5,44.2,30.25,SSW,193,0.0,2.0,46,0.00,,,0.00,VWS V14.01,2013-02-15 01:13:00,
2013-02-14 20:18:00,65.1,44.4,30.25,ESE,110,0.0,2.0,47,0.00,,,0.00,VWS V14.01,2013-02-15 01:18:00,
2013-02-14 20:23:00,64.6,44.5,30.25,SE,130,0.0,4.0,48,0.00,,,0.00,VWS V14.01,2013-02-15 01:23:00,
2013-02-14 20:28:00,64.1,44.6,30.25,ENE,75,0.0,1.0,49,0.00,,,0.00,VWS V14.01,2013-02-15 01:28:00,
2013-02-14 20:33:00,63.5,44.0,30.25,SE,132,0.0,1.0,49,0.00,,,0.00,VWS V14.01,2013-02-15 01:33:00,
2013-02-14 20:38:00,62.9,44.0,30.25,SE,132,0.0,1.0,50,0.00,,,0.00,VWS V14.01,2013-02-15 01:38:00,
2013-02-14 20:43:00,62.3,44.0,30.25,ESE,120,0.0,1.0,51,0.00,,,0.00,VWS V14.01,2013-02-15 01:43:00,
2013-02-14 20:48:00,61.8,43.5,30.25,ESE,120,0.0,1.0,51,0.00,,,0.00,VWS V14.01,2013-02-15 01:48:00,
2013-02-14 20:53:00,61.2,44.0,30.25,ESE,120,0.0,1.0,53,0.00,,,0.00,VWS V14.01,2013-02-15 01:53:00,
2013-02-14 20:58:00,60.5,43.3,30.25,SE,124,0.0,0.0,53,0.00,,,0.00,VWS V14.01,2013-02-15 01:58:00,
2013-02-14 21:03:00,60.0,43.3,30.25,SE,124,0.0,0.0,54,0.00,,,0.00,VWS V14.01,2013-02-15 02:03:00,
2013-02-14 21:08:00,59.5,43.3,30.25,SE,132,0.0,0.0,55,0.00,,,0.00,VWS V14.01,2013-02-15 02:08:00,
2013-02-14 21:13:00,59.1,43.0,30.25,SE,128,0.0,1.0,55,0.00,,,0.00,VWS V14.01,2013-02-15 02:13:00,
2013-02-14 21:18:00,58.9,43.2,30.25,SE,128,0.0,1.0,56,0.00,,,0.00,VWS V14.01,2013-02-15 02:18:00,
2013-02-14 21:23:00,58.5,42.9,30.26,SE,129,0.0,1.0,56,0.00,,,0.00,VWS V14.01,2013-02-15 02:23:00,
2013-02-14 21:28:00,58.1,43.0,30.26,SE,129,0.0,0.0,57,0.00,,,0.00,VWS V14.01,2013-02-15 02:28:00,
2013-02-14 21:33:00,57.7,43.0,30.26,SE,129,0.0,0.0,58,0.00,,,0.00,VWS V14.01,2013-02-15 02:33:00,
2013-02-14 21:38:00,57.2,42.6,30.26,SE,129,0.0,0.0,58,0.00,,,0.00,VWS V14.01,2013-02-15 02:38:00,
2013-02-14 21:43:00,56.6,42.9,30.26,SE,129,0.0,0.0,60,0.00,,,0.00,VWS V14.01,2013-02-15 02:43:00,
2013-02-14 21:48:00,56.1,42.8,30.26,SE,129,0.0,0.0,61,0.00,,,0.00,VWS V14.01,2013-02-15 02:48:00,
2013-02-14 21:53:00,55.8,42.6,30.26,SE,129,0.0,0.0,61,0.00,,,0.00,VWS V14.01,2013-02-15 02:53:00,
2013-02-14 21:58:00,55.5,42.7,30.26,SE,130,0.0,0.0,62,0.00,,,0.00,VWS V14.01,2013-02-15 02:58:00,
2013-02-14 22:03:00,55.2,42.4,30.26,SE,130,0.0,0.0,62,0.00,,,0.00,VWS V14.01,2013-02-15 03:03:00,
2013-02-14 22:08:00,54.9,42.6,30.26,SE,129,0.0,0.0,63,0.00,,,0.00,VWS V14.01,2013-02-15 03:08:00,
2013-02-14 22:13:00,54.7,42.4,30.26,SE,130,0.0,1.0,63,0.00,,,0.00,VWS V14.01,2013-02-15 03:13:00,
2013-02-14 22:18:00,54.4,42.5,30.26,SE,129,0.0,1.0,64,0.00,,,0.00,VWS V14.01,2013-02-15 03:18:00,
2013-02-14 22:23:00,54.0,42.1,30.26,SE,130,0.0,1.0,64,0.00,,,0.00,VWS V14.01,2013-02-15 03:23:00,
2013-02-14 22:28:00,53.6,42.1,30.27,SE,130,0.0,0.0,65,0.00,,,0.00,VWS V14.01,2013-02-15 03:28:00,
2013-02-14 22:33:00,53.2,42.2,30.26,SE,129,0.0,0.0,66,0.00,,,0.00,VWS V14.01,2013-02-15 03:33:00,
2013-02-14 22:38:00,52.7,42.1,30.26,SE,130,0.0,0.0,67,0.00,,,0.00,VWS V14.01,2013-02-15 03:38:00,
2013-02-14 22:43:00,52.4,42.2,30.26,SE,130,0.0,0.0,68,0.00,,,0.00,VWS V14.01,2013-02-15 03:43:00,
2013-02-14 22:48:00,51.9,42.1,30.26,SE,130,0.0,0.0,69,0.00,,,0.00,VWS V14.01,2013-02-15 03:48:00,
2013-02-14 22:53:00,51.4,42.0,30.26,SE,130,0.0,0.0,70,0.00,,,0.00,VWS V14.01,2013-02-15 03:53:00,
2013-02-14 22:58:00,51.1,41.7,30.26,SE,129,0.0,0.0,70,0.00,,,0.00,VWS V14.01,2013-02-15 03:58:00,
2013-02-14 23:03:00,50.6,41.6,30.26,SE,129,0.0,0.0,71,0.00,,,0.00,VWS V14.01,2013-02-15 04:03:00,
2013-02-14 23:08:00,50.2,41.5,30.27,SE,129,0.0,0.0,72,0.00,,,0.00,VWS V14.01,2013-02-15 04:08:00,
2013-02-14 23:13:00,49.8,41.2,30.27,SE,130,0.0,0.0,72,0.00,,,0.00,VWS V14.01,2013-02-15 04:13:00,
2013-02-14 23:18:00,49.5,41.6,30.27,SE,129,0.0,0.0,74,0.00,,,0.00,VWS V14.01,2013-02-15 04:18:00,
2013-02-14 23:23:00,49.2,41.3,30.27,SE,130,0.0,0.0,74,0.00,,,0.00,VWS V14.01,2013-02-15 04:23:00,
2013-02-14 23:28:00,49.0,41.4,30.27,SE,129,0.0,0.0,75,0.00,,,0.00,VWS V14.01,2013-02-15 04:28:00,
2013-02-14 23:33:00,48.8,40.9,30.27,SE,131,0.0,1.0,74,0.00,,,0.00,VWS V14.01,2013-02-15 04:33:00,
2013-02-14 23:38:00,48.5,41.0,30.27,SE,131,0.0,1.0,75,0.00,,,0.00,VWS V14.01,2013-02-15 04:38:00,
2013-02-14 23:43:00,48.4,41.2,30.28,SE,131,0.0,1.0,76,0.00,,,0.00,VWS V14.01,2013-02-15 04:43:00,
2013-02-14 23:48:00,48.3,41.1,30.28,SE,131,0.0,1.0,76,0.00,,,0.00,VWS V14.01,2013-02-15 04:48:00,
2013-02-14 23:53:00,48.3,41.1,30.28,SE,131,0.0,1.0,76,0.00,,,0.00,VWS V14.01,2013-02-15 04:53:00,
2013-02-14 23:58:00,48.3,41.1,30.28,South,190,1.0,1.0,76,0.00,,,0.00,VWS V14.01,2013-02-15 04:58:00,